Timeline UpdatesTrip UpdatesNews PostsPvt Posts♥♥Travel TipsAdmin PostsConv PostsFollowed PostsChat RequestsBlog PostsPNR Posts

Disclaimer
Search
 
 
Sat Nov 1, 2014 16:34:54 ISTHomeTrainsΣChainsAtlasPNRForumGalleryNewsFAQTripsMembersLoginFeedback
No Recent News for this Train
Other Trains in the News **new
Latest...
running with se1
Wed Aug 27, 2014 (09:44AM)
⇐ Return Journey: Train# 18237

18238/Chhattisgarh Express

Time-Table HAS CHANGED.
Oct 15 (6:58PM)
Change Departure Station:
Change Arrival Station:
Post a Train Travel TipPost a Train Travel Tip **new
Post a Comment/Question/Picture/VideoPost a Comment/Question/Picture/Video
Inaugural Run
Sat Jan 01, 1977
Pantry/Catering
✓ Pantry Car Avbl
✓ Catering Avbl
Loco/Rake Reversals
NGP/Nagpur Junction (8);
RSA - Rake Sharing
0
Rake/Coach Composition
LOCO-SLR-GS-EXT-S1-S2-S3-S4-S5-S6-S7-S8-S9-S10-PC-S11-S12-B3-B2-B1-A1-HA1-GS-SLR-SP1
Loco
ASR - NZM ---- TKD WDP4 NZM - NGP --- AJNI...
Read more...
WAP7 NGP - BSP --- ET WAP4 Author: Mahesh Gupta Entry# 295348
News    PNR    Forum    Time-Table    Availability    Fare Chart    Map    Arr/Dep History    Trips    Gallery    ΣChains    X/O    Timeline    
Travel Time: 6h 24m    11 halts    Distance: 283 km    Avg Speed: 44 km/hr
Type: Mail/Express
Zone: SECR/South East Central
Departs @ 05:56 (Avg 35m late)
Platform# 4
SMTWTFS
Gondia Junction/G 
Arrives @ 12:20 (Avg 12m late)
Platform# 8
SMTWTFS
Bilaspur Junction/BSP 

11 halts. 38 intermediate Stations between Gondia Junction and Bilaspur Junction

Show ALL intermediate Stations  Show Old Time-Table

#TrkCodeStation NameX/OArrivesAvgDepartsAvgHaltPFDay#KmSpeedElevZoneAddress
1/==/ASRAmritsar Junction (5)  -16:15+821-1728.477233mNRAmritsar 143002, Punjab
2/==/JNLJandiala (2)  16:30+1716:32+172m21-1709.280238mNRJandiala, Punjab
3/==/BEASBeas Junction (2)  16:50+1916:52+202m21-1685.461238mNRBeas, Punjab
4/==/KREKartarpur (2)X  17:13+1917:15+192m11-1664.068236mNRKartarpur, Punjab
5/==/JUCJalandhar City Junction (5)X  17:28+2117:35 17:34+287 6m21-1649.329239mNRJalandhar 144001, Punjab
6/==/JRCJalandhar Cantt. Junction (3)X  17:48 17:44+2617:50 17:46+332m21-1644.565239mNRNear Rama Mandi, Punjab
7/==/PGWPhagwara Junction (3)  18:05 18:01+3418:07 18:03+332m11-1628.245245mNRPhagwara, Punjab
8/==/GRYGoraya (2)XO  18:21 18:16+3318:23 18:18+372m11-1618.327240mNRGoraya, Punjab
9/==/PHRPhillaur Junction (3)X  18:46+2018:48+202m11-1605.646246mNRPhillaur, Punjab
10/==/LDHLudhiana Junction (7)X  19:05+2219:15+2310m11-1592.522246mNRLudhiana 141001, Punjab
11/==/SNLSanehwal (3)X  19:56+519:58+82m21-1577.355260mNRLudhiana, Punjab
12/==/DOADoraha (2)  20:07 20:06+1420:08+141 2m21-1570.057261mNRDoraha, Punjab
13/==/CHAChawapail (2)X  20:18+1620:20+162m21-1560.666267mNRLudhiana, Punjab
14/==/KNNKhanna (3)  20:30+1720:32+172m21-1549.754269mNRNH 1, Punjab
15/==/GVGMandi Gobindgarh (2)  20:41+1920:43+192m21-1541.649268mNRMandi Gobindgarh, Punjab
16/==/SIRSirhind Junction (3)X  20:55+1920:57+192m21-1531.865271mNRSirhind, Punjab
17/==/RPJRajpura Junction (3)X  21:20+2021:22+202m21-1506.956272mNRNH-1, Punjab
18/==/UBCAmbala City (3)X  21:45 21:44+1721:46+181 2m11-1486.521273mNRNH-1, Haryana
19/==/UMBAmbala Cantt. Junction (7)X  22:08+1522:20+1312m21-1478.968278mNRAmbala 133001, Haryana
20/==/RAABarara (2)  22:42+1722:44+172m11-1454.171279mNRBarara, Haryana
21/==/JUDWJagadhri Workshop (2)  23:02+1923:04+192m11-1432.943280mNRRailway Workshop Road, Haryana
22/==/JUDYamunanagar-Jagadhri (3)  23:11+2023:13+202m21-1427.935275mNRYamunanagar, Haryana
23/==/SRESaharanpur Junction (6)X  00:05+400:15+610m32-1397.768276mNRSaharanpur, Uttar Pradesh
24%--%DBDDeoband (2)  00:45+2100:47+222m12-1363.576258mNRSaharanpur, Uttar Pradesh
25%--%MOZMuzaffarnagar (3)  01:06+2401:08+252m12-1339.578247mNRMuzaffarNagar, Uttar Pradesh
26%--%KATKhatauli (2)  01:34 01:25+2701:36 01:27+312m--2-1317.377239mNRKhatauli, Uttar Pradesh
27%--%DRLADaurala (1)  01:56 01:41+3501:58 01:43+352m12-1299.451232mNRMeerut, Uttar Pradesh
28%--%MUTMeerut Cantt. (2)  02:09 01:56+3802:11 01:58+392m12-1288.229230mNRMeerut, Uttar Pradesh
29%--%MTCMeerut City Junction (6)  02:20 02:07+3802:25 02:12+375m22-1283.969229mNRMeerut, Uttar Pradesh
30%==%MDNRModinagar (2)  02:39 02:29+3802:41 02:31+382m--2-1264.560221mNRGhaziabad, Uttar Pradesh
31%==%GUHGuldhar (2)  02:55 02:49+3702:57 02:51+372m--2-1246.416224mNRGhaziabad, Uttar Pradesh
32%==%GZBGhaziabad Junction (6)  03:28+1703:30+182m32-1236.745217mNRGhaziabad, Uttar Pradesh
33/==/SBBSahibabad Junction (5)  03:40 03:39+2203:41+221 2m--2-1230.033209mNRGhaziabad, Uttar Pradesh
34/==/NZMDelhi Hazrat Nizamuddin (7)X04:15 04:10+2204:40+2025 30m22-1214.060209mNRNew Delhi 110013, Delhi NCT
35/==/BVHBallabgarh (5)X  05:09+2105:11+212m42-1185.142203mNRFaridabad, Haryana
36/==/PWLPalwal (8)X  05:41+1205:43+152m42-1163.985200mNRPalwal, Haryana
37/==/KSVKosi Kalan (3)X  06:13+2206:15+232m22-1121.556189mNCRKosi Kalan, Uttar Pradesh
38/==/CHJChata (4)X  06:26+2406:28+252m12-1111.269 NCRChhata, Uttar Pradesh
39/==/MTJMathura Junction (10)X  06:55+2807:00+285m12-1080.062179mNCRMathura, Uttar Pradesh
40/==/RKMRaja Ki Mandi (4)XO  07:48+3507:50+362m22-1030.36170mNCRAgra, Uttar Pradesh
41/==/AGCAgra Cantt. (6)X  08:30+1808:40 08:38+2310 8m12-1026.375174mNCRAgra, Uttar Pradesh
42/==/DHODholpur Junction (3)X  09:20+3009:22+462m22-973.762177mNCRDholpur, Rajasthan
43/==/MRAMorena (3)X  09:45 09:48+5209:50+595 2m12-946.972176mNCRMorena, Madhya Pradesh
44/==/BAOBanmorXO  10:06+1:0010:08+1:032m--2-927.631189mNCRGwalior, Madhya Pradesh
45/==/GWLGwalior Junction (4)XO  10:45+5410:50+545m12-908.363214mNCRGwalior, Madhya Pradesh
46/==/DBADabra (3)  11:30+5511:32+572m32-866.063 NCRDabra(District-Gwalior), Madhya Pradesh
47/==/SORSonagir (2)O  11:50+5611:52+572m--2-847.230211mNCRDatia, Madhya Pradesh
48/==/DAADatia (2)X  12:15+5112:17+522m--2-835.628264mNCRDatia, Madhya Pradesh
49/==/JHSJhansi Junction (7)  13:10+2913:20+3410m--2-810.667259mNCRJhansi, Uttar Pradesh
50/==/BABBabina (3)X  13:45 13:43+4113:47 13:45+412m12-785.152285mNCRBabina, Uttar Pradesh
51/==/BZYBasai (3)X  13:59+4214:01+442m12-773.059287mNCR07522289600(Gate ManMob. - 9452701575), Madhya Pradesh
52/==/TBTTalbahat (4)X  14:17 14:14+4414:19 14:16+482m22-760.2100314mNCRKhaniyadhana Station Rd, Madhya Pradesh
53/==/LARLalitpur (3)  14:48 14:40+5614:50 14:42+582m12-720.391373mNCRLalitpur, Uttar Pradesh
54/==/JLNJakhalaun (3) new halt!!XO  14:53+1:0514:55+1:062m--2-703.546394mNCRLalitpur(05176-272220), Uttar Pradesh
55/==/DUADhaura (3)XO  15:10+1:0215:12+1:022m--2-692.028407mNCRDhaura Tanda, Madhya Pradesh
56/==/BINABina Junction (5)X  16:25+3316:30+335m22-657.469414mWCRJn Pt - KATNI/GUNA/ BPL/JHS, Madhya Pradesh
57/==/MABAMandi Bamora (3)XO  16:45+4016:47+402m22-640.178413mWCRState Highway 14, Madhya Pradesh
58/==/BAQGanj Basoda (4)  17:09+4117:11+412m22-611.684 WCRVidisha, Madhya Pradesh
59/==/BHSVidisha (3)X  17:39+4517:41+462m22-572.354 WCRVidisha, Madhya Pradesh
60/==/BPLBhopal Junction (6)X  18:40+4318:45+455m12-518.838497mWCRBhopal, Madhya Pradesh
61/==/HBJBhopal HabibGanj (5)  18:55+4918:57+502m--2-512.543496mWCRHabibGanj, Madhya Pradesh
62/==/HBDHoshangabad (2)XO  20:30+4520:32+402m22-445.133308mWCRHoshangabad, Madhya Pradesh
63/==/ETItarsi Junction (7)X  21:10 21:05+3321:15+335 10m32-427.168329mWCRItarsi 461111, Madhya Pradesh
64/==/GDYAGhoradongri (3)X  22:17+4822:19+492m--2-356.749 CRBetul, Madhya Pradesh
65/==/BZUBetul (3)  23:02 23:03+5323:05+533 2m--2-320.846644mCRBetul, Madhya Pradesh
66/==/AMLAAmla Junction (5)  23:35+4600:10+3335m12-297.898733mCRAmla Distt. Betul, Madhya Pradesh
67/==/MTYMultai (2)  00:24+3700:26+382m--3-275.058762mCRMultai, Madhya Pradesh
68/==/PARPandhurna (2)  01:08+4501:10+462m13-234.285481mCRDistt: Chhindwara, Madhya Pradesh
69/==/NRKRNarkher Junction (4)X  01:23+5001:25+502m--3-215.966411mCRDistrict Nagpur, Maharashtra
70/==/KATLKatol (2)X  01:48+4701:50+472m--3-190.737 CRKatol. District Nagpur, Maharashtra
71/==/NGPNagpur Junction (8)03:30+1203:55+1425m63-129.948314mCRNagpur 440001, Maharashtra
72/==/KPKamptee (3)X  04:13+2304:15+262m--3-115.596290mSECRKamptee, Maharashtra
73/==/BRDBhandara Road (3)  04:45+3304:47+352m23-67.677266mSECRState Highway 252 Bhandara District, Maharashtra
74/==/TMRTumsar Road (5)  05:01+3505:03+342m--3-49.781267mSECRDistt. Bhandara, Maharashtra
75/==/TROTirora (3)  05:18+3705:20+382m--3-29.357282mSECRDist Gondia, Maharashtra
76/==/GGondia Junction (7)»X  05:51+3605:56+355m430.098316mSECRGondia 441601, Maharashtra
77/==/AGNAmgaon (2)  06:10+4206:12+432m--322.880317mSECRGondia, Maharashtra
78/==/SKSSalekasa (2)  06:23+4406:25+452m--337.556312mSECRRajnandgaon, Chhattisgarh
79/==/DGGDongargarh (2)XO  07:03+4507:05+462m--373.363 SECRDongargarh, Chhattisgarh
80/==/RJNRaj Nandgaon (3)X  07:35+4007:40+395m--3104.830313mSECRRajnandgaon, Chhattisgarh
81/==/DURGDurg Junction (6)X  08:40+1308:55+1315m--3135.360299mSECRPh: 91-788-2322059, Chhattisgarh
82/==/BPHBBhilai Power House (3)X  09:04+4909:06+492m--3144.243312mSECRBhilai, Chhattisgarh
83/==/RRaipur Junction (6)  09:45+1709:55+2110m53172.269297mSECRRaipur, Chhattisgarh
84/==/TLDTilda (3)X  10:28+3210:30+322m--3210.449 SECRBanjari Rd, Chhattisgarh
85/==/HNHathbandhX  10:43+3010:45+312m--3221.171283mSECRRaipur, Chhattisgarh
86/==/BYTBhatapara (4)X  10:58+3011:00+302m--3236.561270mSECRBanjari Road, Chhattisgarh
87/==/BYLBelhaX  11:30+2911:32+292m--3267.119269mSECRCollege Road, Chhattisgarh
88/==/BSPBilaspur Junction (8)•  12:20+12-83282.6-271mSECRBilaspur, Chhattisgarh
Scroll to Top
Scroll to Bottom